createdAt,value
2018-05-21T00:01:53.776Z,13.10
2018-05-21T00:04:26.248Z,13.10
2018-05-21T00:06:58.595Z,13.10
2018-05-21T00:09:31.130Z,13.10
2018-05-21T00:12:03.679Z,13.10
2018-05-21T00:14:36.987Z,13.10
2018-05-21T00:17:10.279Z,13.10
2018-05-21T00:19:42.719Z,13.10
2018-05-21T00:22:15.462Z,13.10
2018-05-21T00:24:47.952Z,13.10
2018-05-21T00:27:20.656Z,13.10
2018-05-21T00:29:53.798Z,13.10
2018-05-21T00:32:26.260Z,13.00
2018-05-21T00:34:58.959Z,13.00
2018-05-21T00:37:31.583Z,12.90
2018-05-21T00:40:04.064Z,12.80
2018-05-21T00:42:36.767Z,12.60
2018-05-21T00:45:09.867Z,12.50
2018-05-21T00:47:42.650Z,12.40
2018-05-21T00:50:15.485Z,12.30
2018-05-21T00:52:48.098Z,12.30
2018-05-21T00:55:33.532Z,12.20
2018-05-21T00:58:05.934Z,12.20
2018-05-21T01:00:39.091Z,12.20
2018-05-21T01:03:11.570Z,12.20
2018-05-21T01:05:44.288Z,12.10
2018-05-21T01:08:18.334Z,12.10
2018-05-21T01:10:50.785Z,12.10
2018-05-21T01:13:24.085Z,11.90
2018-05-21T01:18:36.435Z,11.70
2018-05-21T01:21:08.870Z,11.70
2018-05-21T01:23:41.407Z,11.80
2018-05-21T01:26:15.329Z,11.90
2018-05-21T01:28:47.937Z,11.90
2018-05-21T01:31:20.509Z,12.00
2018-05-21T01:33:53.169Z,12.00
2018-05-21T01:36:25.668Z,12.00
2018-05-21T01:38:58.199Z,12.10
2018-05-21T01:41:30.605Z,12.10
2018-05-21T01:44:03.063Z,12.10
2018-05-21T01:46:35.534Z,12.10
2018-05-21T01:49:08.337Z,12.10
2018-05-21T01:51:40.798Z,12.20
2018-05-21T01:54:13.485Z,12.20
2018-05-21T01:56:46.682Z,12.30
2018-05-21T01:59:19.953Z,12.30
2018-05-21T02:01:53.214Z,12.30
2018-05-21T02:04:25.752Z,12.30
2018-05-21T02:06:58.581Z,12.30
2018-05-21T02:09:31.197Z,12.30
2018-05-21T02:12:03.832Z,12.30
2018-05-21T02:14:36.444Z,12.30
2018-05-21T02:19:48.257Z,12.30
2018-05-21T02:22:21.052Z,12.30
2018-05-21T02:24:53.719Z,12.30
2018-05-21T02:27:27.739Z,12.20
2018-05-21T02:30:00.205Z,12.20
2018-05-21T02:32:33.672Z,12.10
2018-05-21T02:35:06.144Z,12.10
2018-05-21T02:37:38.768Z,12.10
2018-05-21T02:40:11.304Z,12.00
2018-05-21T02:42:43.723Z,12.00
2018-05-21T02:45:16.475Z,11.90
2018-05-21T02:47:49.242Z,11.90
2018-05-21T02:50:22.481Z,11.80
2018-05-21T02:52:54.993Z,11.80
2018-05-21T02:55:27.459Z,11.80
2018-05-21T02:58:00.630Z,11.80
2018-05-21T03:00:34.087Z,11.80
2018-05-21T03:03:06.724Z,11.70
2018-05-21T03:05:39.454Z,11.70
2018-05-21T03:08:11.897Z,11.60
2018-05-21T03:10:44.520Z,11.60
2018-05-21T03:13:17.742Z,11.60
2018-05-21T03:15:50.243Z,11.60
2018-05-21T03:18:22.886Z,11.60
2018-05-21T03:20:55.505Z,11.60
2018-05-21T03:23:28.013Z,11.60
2018-05-21T03:26:00.592Z,11.70
2018-05-21T03:28:33.991Z,11.80
2018-05-21T03:31:07.344Z,11.90
2018-05-21T03:33:39.843Z,11.90
2018-05-21T03:36:12.287Z,12.00
2018-05-21T03:38:45.709Z,12.20
2018-05-21T03:41:18.277Z,12.10
2018-05-21T03:43:51.471Z,12.30
2018-05-21T03:46:24.060Z,12.30
2018-05-21T03:48:56.686Z,12.40
2018-05-21T03:51:29.399Z,12.40
2018-05-21T03:54:01.838Z,12.50
2018-05-21T03:56:34.546Z,12.40
2018-05-21T03:59:19.655Z,12.40
2018-05-21T04:02:05.434Z,12.40
2018-05-21T04:04:37.988Z,12.40
2018-05-21T04:07:10.483Z,12.40
2018-05-21T04:09:43.058Z,12.40
2018-05-21T04:12:15.913Z,12.50
2018-05-21T04:14:49.209Z,12.50
2018-05-21T04:17:22.058Z,12.50
2018-05-21T04:19:54.586Z,12.60
2018-05-21T04:22:27.132Z,12.60
2018-05-21T04:24:59.723Z,12.70
2018-05-21T04:27:32.939Z,12.80
2018-05-21T04:30:12.498Z,12.80
2018-05-21T04:32:45.984Z,12.80
2018-05-21T04:35:18.545Z,12.80
2018-05-21T04:37:51.010Z,12.90
2018-05-21T04:40:23.744Z,12.90
2018-05-21T04:42:56.436Z,13.00
2018-05-21T04:45:29.005Z,13.10
2018-05-21T04:48:01.445Z,13.10
2018-05-21T04:50:34.090Z,13.20
2018-05-21T04:53:06.958Z,13.20
2018-05-21T04:55:39.421Z,13.30
2018-05-21T04:58:13.119Z,13.40
2018-05-21T05:00:45.633Z,13.40
2018-05-21T05:03:18.226Z,13.40
2018-05-21T05:05:50.898Z,13.50
2018-05-21T05:08:23.309Z,13.60
2018-05-21T05:10:55.828Z,13.70
2018-05-21T05:13:28.268Z,13.80
2018-05-21T05:16:00.720Z,13.90
2018-05-21T05:18:33.262Z,14.00
2018-05-21T05:21:06.144Z,14.10
2018-05-21T05:23:38.627Z,14.30
2018-05-21T05:26:11.243Z,14.50
2018-05-21T05:28:43.695Z,14.60
2018-05-21T05:31:16.860Z,14.90
2018-05-21T05:33:50.100Z,15.00
2018-05-21T05:36:22.567Z,15.00
2018-05-21T05:38:54.981Z,15.10
2018-05-21T05:41:27.646Z,15.30
2018-05-21T05:44:00.873Z,15.50
2018-05-21T05:46:33.428Z,15.50
2018-05-21T05:49:05.974Z,15.60
2018-05-21T05:51:38.367Z,15.70
2018-05-21T05:54:10.875Z,15.80
2018-05-21T05:56:44.189Z,16.10
2018-05-21T05:59:16.750Z,16.00
2018-05-21T06:01:49.936Z,16.30
2018-05-21T06:04:23.850Z,16.30
2018-05-21T06:06:56.367Z,16.30
2018-05-21T06:09:29.004Z,16.40
2018-05-21T06:12:01.439Z,16.50
2018-05-21T06:14:34.058Z,16.70
2018-05-21T06:17:06.648Z,16.70
2018-05-21T06:19:39.334Z,16.80
2018-05-21T06:22:11.987Z,16.90
2018-05-21T06:24:44.567Z,16.90
2018-05-21T06:27:17.060Z,17.00
2018-05-21T06:29:49.740Z,17.10
2018-05-21T06:32:22.343Z,17.10
2018-05-21T06:34:55.573Z,17.30
2018-05-21T06:37:28.133Z,17.30
2018-05-21T06:40:07.650Z,17.40
2018-05-21T06:42:41.608Z,17.50
2018-05-21T06:45:14.168Z,17.50
2018-05-21T06:47:47.543Z,17.70
2018-05-21T06:50:20.184Z,17.70
2018-05-21T06:52:52.974Z,17.80
2018-05-21T06:55:25.725Z,17.80
2018-05-21T06:57:58.472Z,17.90
2018-05-21T07:00:31.064Z,18.00
2018-05-21T07:03:03.643Z,18.10
2018-05-21T07:05:36.328Z,18.10
2018-05-21T07:08:08.959Z,18.20
2018-05-21T07:10:42.945Z,18.40
2018-05-21T07:13:15.500Z,18.40
2018-05-21T07:15:48.171Z,18.50
2018-05-21T07:18:21.317Z,18.60
2018-05-21T07:20:53.828Z,18.70
2018-05-21T07:23:26.684Z,18.70
2018-05-21T07:25:59.275Z,18.90
2018-05-21T07:28:31.969Z,19.00
2018-05-21T07:31:05.247Z,19.20
2018-05-21T07:33:38.663Z,19.20
2018-05-21T07:36:11.309Z,19.20
2018-05-21T07:38:43.751Z,19.20
2018-05-21T07:43:57.091Z,19.40
2018-05-21T07:46:29.752Z,19.50
2018-05-21T07:49:02.299Z,19.60
2018-05-21T07:51:34.953Z,19.70
2018-05-21T07:54:07.804Z,19.80
2018-05-21T07:56:40.429Z,19.80
2018-05-21T07:59:13.295Z,19.90
2018-05-21T08:01:45.839Z,19.90
2018-05-21T08:04:18.319Z,20.00
2018-05-21T08:06:51.140Z,20.00
2018-05-21T08:09:24.287Z,20.20
2018-05-21T08:11:57.538Z,20.20
2018-05-21T08:14:30.820Z,20.20
2018-05-21T08:17:03.418Z,20.20
2018-05-21T08:19:36.082Z,20.30
2018-05-21T08:22:09.322Z,20.60
2018-05-21T08:24:41.678Z,20.60
2018-05-21T08:27:14.928Z,20.70
2018-05-21T08:29:48.154Z,20.80
2018-05-21T08:32:20.555Z,20.80
2018-05-21T08:34:53.136Z,20.90
2018-05-21T08:37:25.784Z,21.00
2018-05-21T08:39:58.963Z,21.20
2018-05-21T08:42:31.667Z,21.20
2018-05-21T08:45:04.493Z,21.30
2018-05-21T08:47:37.013Z,21.40
2018-05-21T08:50:09.703Z,21.50
2018-05-21T08:52:42.120Z,21.60
2018-05-21T08:55:15.436Z,21.60
2018-05-21T08:57:48.675Z,21.70
2018-05-21T09:00:21.986Z,21.80
2018-05-21T09:02:54.702Z,21.70
2018-05-21T09:05:27.317Z,21.80
2018-05-21T09:08:00.501Z,21.90
2018-05-21T09:10:33.150Z,21.90
2018-05-21T09:13:06.364Z,22.10
2018-05-21T09:15:40.311Z,22.30
2018-05-21T09:18:12.854Z,22.30
2018-05-21T09:20:45.413Z,22.50
2018-05-21T09:23:18.784Z,22.60
2018-05-21T09:25:51.340Z,22.60
2018-05-21T09:28:23.942Z,22.60
2018-05-21T09:30:56.730Z,22.70
2018-05-21T09:33:29.301Z,22.80
2018-05-21T09:36:01.725Z,22.80
2018-05-21T09:38:34.930Z,22.90
2018-05-21T09:41:07.869Z,22.90
2018-05-21T09:43:40.557Z,22.90
2018-05-21T09:46:13.809Z,23.00
2018-05-21T09:48:46.549Z,22.90
2018-05-21T09:51:19.156Z,22.90
2018-05-21T09:53:51.757Z,22.90
2018-05-21T09:56:24.549Z,22.90
2018-05-21T09:58:57.149Z,23.10
2018-05-21T10:01:30.016Z,23.10
2018-05-21T10:04:03.457Z,23.20
2018-05-21T10:06:36.007Z,23.10
2018-05-21T10:09:09.453Z,23.40
2018-05-21T10:11:42.249Z,23.40
2018-05-21T10:14:14.784Z,23.50
2018-05-21T10:16:48.260Z,23.60
2018-05-21T10:19:20.759Z,23.60
2018-05-21T10:21:53.477Z,23.60
2018-05-21T10:24:26.183Z,23.60
2018-05-21T10:26:58.960Z,23.80
2018-05-21T10:29:31.524Z,23.80
2018-05-21T10:32:04.427Z,23.90
2018-05-21T10:34:37.149Z,23.90
2018-05-21T10:37:09.654Z,23.80
2018-05-21T10:42:22.330Z,24.00
2018-05-21T10:44:54.921Z,24.10
2018-05-21T10:47:27.407Z,24.20
2018-05-21T10:50:00.031Z,24.40
2018-05-21T10:52:39.467Z,24.40
2018-05-21T10:55:11.973Z,24.50
2018-05-21T10:57:44.655Z,24.40
2018-05-21T11:00:17.639Z,24.40
2018-05-21T11:02:50.261Z,24.40
2018-05-21T11:05:22.864Z,24.40
2018-05-21T11:07:56.520Z,24.40
2018-05-21T11:10:29.160Z,24.40
2018-05-21T11:13:01.765Z,24.40
2018-05-21T11:15:34.360Z,24.40
2018-05-21T11:18:07.195Z,24.30
2018-05-21T11:20:39.882Z,24.40
2018-05-21T11:23:12.490Z,24.40
2018-05-21T11:25:45.206Z,24.50
2018-05-21T11:28:17.999Z,24.60
2018-05-21T11:30:50.774Z,24.60
2018-05-21T11:33:23.330Z,24.70
2018-05-21T11:35:56.278Z,24.70
2018-05-21T11:38:28.805Z,24.70
2018-05-21T11:41:01.293Z,24.60
2018-05-21T11:43:33.731Z,24.70
2018-05-21T11:46:06.163Z,24.60
2018-05-21T11:48:38.775Z,24.40
2018-05-21T11:51:11.302Z,24.40
2018-05-21T11:53:44.195Z,24.40
2018-05-21T11:56:16.750Z,24.50
2018-05-21T11:58:49.355Z,24.50
2018-05-21T12:01:21.936Z,24.60
2018-05-21T12:03:55.578Z,24.60
2018-05-21T12:06:28.061Z,24.60
2018-05-21T12:09:01.505Z,24.70
2018-05-21T12:11:34.063Z,24.70
2018-05-21T12:14:06.764Z,24.60
2018-05-21T12:16:39.549Z,24.60
2018-05-21T12:19:12.308Z,24.60
2018-05-21T12:21:44.834Z,24.70
2018-05-21T12:24:17.408Z,24.80
2018-05-21T12:26:50.068Z,24.70
2018-05-21T12:29:23.287Z,24.80
2018-05-21T12:31:56.814Z,25.00
2018-05-21T12:34:29.381Z,25.00
2018-05-21T12:37:02.051Z,25.10
2018-05-21T12:39:34.690Z,25.20
2018-05-21T12:42:07.288Z,25.30
2018-05-21T12:44:40.723Z,25.50
2018-05-21T12:47:13.245Z,25.50
2018-05-21T12:49:45.851Z,25.70
2018-05-21T12:52:19.204Z,26.60
2018-05-21T12:54:52.430Z,27.10
2018-05-21T12:57:25.600Z,27.60
2018-05-21T12:59:58.194Z,27.50
2018-05-21T13:02:30.734Z,27.80
2018-05-21T13:05:03.604Z,28.20
2018-05-21T13:07:36.303Z,28.60
2018-05-21T13:10:09.024Z,29.00
2018-05-21T13:12:41.687Z,29.30
2018-05-21T13:15:14.311Z,29.20
2018-05-21T13:17:47.022Z,29.10
2018-05-21T13:20:19.620Z,29.00
2018-05-21T13:22:52.185Z,28.80
2018-05-21T13:25:24.712Z,28.50
2018-05-21T13:27:57.349Z,28.10
2018-05-21T13:30:29.930Z,28.00
2018-05-21T13:33:02.651Z,27.90
2018-05-21T13:35:35.094Z,27.90
2018-05-21T13:38:07.851Z,27.70
2018-05-21T13:40:40.439Z,27.60
2018-05-21T13:43:13.152Z,27.20
2018-05-21T13:48:25.320Z,26.90
2018-05-21T13:50:57.891Z,26.70
2018-05-21T13:53:30.681Z,26.70
2018-05-21T13:56:03.155Z,26.60
2018-05-21T13:58:35.704Z,26.40
2018-05-21T14:01:09.092Z,26.50
2018-05-21T14:03:42.484Z,26.60
2018-05-21T14:06:15.006Z,26.60
2018-05-21T14:08:48.426Z,26.90
2018-05-21T14:11:21.076Z,26.90
2018-05-21T14:13:53.771Z,27.00
2018-05-21T14:16:26.596Z,27.20
2018-05-21T14:18:59.270Z,27.40
2018-05-21T14:21:32.626Z,27.60
2018-05-21T14:24:05.112Z,27.60
2018-05-21T14:26:37.576Z,27.70
2018-05-21T14:29:10.280Z,27.70
2018-05-21T14:31:42.708Z,27.50
2018-05-21T14:34:15.314Z,27.50
2018-05-21T14:36:48.085Z,27.50
2018-05-21T14:39:20.705Z,27.40
2018-05-21T14:41:53.585Z,27.20
2018-05-21T14:44:26.306Z,27.10
2018-05-21T14:46:59.025Z,27.10
2018-05-21T14:49:31.756Z,27.00
2018-05-21T14:52:04.402Z,27.00
2018-05-21T14:54:36.893Z,26.90
2018-05-21T14:57:09.751Z,26.80
2018-05-21T14:59:42.133Z,26.70
2018-05-21T15:02:14.835Z,26.60
2018-05-21T15:04:48.283Z,26.60
2018-05-21T15:07:20.976Z,26.60
2018-05-21T15:09:53.664Z,26.60
2018-05-21T15:12:26.130Z,26.70
2018-05-21T15:14:58.793Z,26.80
2018-05-21T15:17:32.464Z,27.00
2018-05-21T15:20:05.018Z,27.00
2018-05-21T15:22:37.775Z,27.10
2018-05-21T15:25:11.137Z,27.30
2018-05-21T15:27:43.832Z,27.50
2018-05-21T15:30:16.450Z,27.60
2018-05-21T15:32:49.121Z,27.90
2018-05-21T15:35:21.866Z,27.90
2018-05-21T15:37:54.430Z,27.90
2018-05-21T15:40:27.629Z,28.10
2018-05-21T15:43:00.894Z,27.90
2018-05-21T15:45:33.506Z,27.90
2018-05-21T15:48:06.208Z,27.70
2018-05-21T15:50:38.654Z,27.70
2018-05-21T15:53:11.485Z,27.80
2018-05-21T15:55:44.129Z,28.10
2018-05-21T15:58:16.811Z,28.20
2018-05-21T16:00:49.353Z,28.50
2018-05-21T16:03:22.051Z,29.00
2018-05-21T16:05:54.737Z,29.40
2018-05-21T16:08:27.591Z,29.90
2018-05-21T16:11:00.351Z,30.50
2018-05-21T16:13:32.869Z,31.40
2018-05-21T16:16:05.551Z,32.30
2018-05-21T16:18:38.200Z,32.60
2018-05-21T16:21:10.983Z,32.90
2018-05-21T16:23:43.524Z,33.90
2018-05-21T16:26:16.944Z,34.90
2018-05-21T16:28:50.364Z,36.20
2018-05-21T16:31:22.900Z,37.70
2018-05-21T16:33:56.114Z,38.50
2018-05-21T16:36:28.792Z,38.50
2018-05-21T16:39:01.347Z,37.90
2018-05-21T16:41:34.821Z,37.60
2018-05-21T16:44:07.398Z,37.60
2018-05-21T16:46:40.656Z,37.00
2018-05-21T16:49:13.368Z,37.00
2018-05-21T16:51:46.221Z,35.60
2018-05-21T16:54:18.836Z,35.00
2018-05-21T16:56:52.430Z,33.70
2018-05-21T16:59:25.013Z,33.60
2018-05-21T17:01:57.918Z,32.60
2018-05-21T17:04:30.655Z,31.40
2018-05-21T17:07:03.355Z,30.30
2018-05-21T17:09:36.204Z,29.20
2018-05-21T17:12:08.895Z,28.40
2018-05-21T17:14:41.406Z,27.70
2018-05-21T17:17:14.290Z,27.10
2018-05-21T17:19:46.906Z,26.60
2018-05-21T17:22:20.249Z,25.80
2018-05-21T17:24:52.971Z,25.80
2018-05-21T17:27:26.207Z,25.40
2018-05-21T17:29:58.798Z,25.20
2018-05-21T17:32:31.598Z,25.00
2018-05-21T17:35:05.088Z,24.60
2018-05-21T17:40:17.872Z,24.20
2018-05-21T17:42:50.347Z,24.20
2018-05-21T17:45:23.858Z,24.10
2018-05-21T17:47:56.742Z,23.90
2018-05-21T17:50:29.550Z,23.80
2018-05-21T17:53:02.230Z,23.70
2018-05-21T17:55:35.002Z,23.60
2018-05-21T17:58:07.687Z,23.50
2018-05-21T18:00:41.286Z,23.30
2018-05-21T18:03:13.860Z,23.30
2018-05-21T18:05:46.702Z,23.20
2018-05-21T18:08:19.416Z,23.10
2018-05-21T18:10:51.939Z,23.10
2018-05-21T18:13:24.557Z,23.00
2018-05-21T18:15:58.050Z,22.90
2018-05-21T18:18:30.844Z,22.80
2018-05-21T18:21:03.766Z,22.80
2018-05-21T18:23:36.596Z,22.70
2018-05-21T18:26:10.018Z,22.60
2018-05-21T18:28:43.605Z,22.50
2018-05-21T18:31:16.630Z,22.50
2018-05-21T18:33:50.124Z,22.30
2018-05-21T18:36:22.887Z,22.30
2018-05-21T18:38:55.976Z,22.20
2018-05-21T18:41:28.619Z,22.20
2018-05-21T18:44:01.566Z,22.10
2018-05-21T18:46:34.515Z,22.00
2018-05-21T18:49:07.344Z,21.90
2018-05-21T18:51:39.906Z,21.80
2018-05-21T18:54:12.913Z,21.70
2018-05-21T18:56:46.868Z,21.60
2018-05-21T18:59:20.325Z,21.60
2018-05-21T19:01:53.874Z,21.40
2018-05-21T19:04:26.733Z,21.40
2018-05-21T19:06:59.420Z,21.30
2018-05-21T19:09:32.287Z,21.20
2018-05-21T19:12:06.637Z,21.00
2018-05-21T19:14:40.095Z,21.00
2018-05-21T19:17:12.825Z,21.00
2018-05-21T19:19:45.987Z,20.90
2018-05-21T19:22:19.067Z,20.80
2018-05-21T19:24:51.766Z,20.70
2018-05-21T19:27:24.546Z,20.70
2018-05-21T19:29:57.202Z,20.50
2018-05-21T19:32:30.143Z,20.50
2018-05-21T19:35:02.954Z,20.40
2018-05-21T19:37:35.486Z,20.40
2018-05-21T19:40:08.486Z,20.30
2018-05-21T19:42:41.979Z,20.20
2018-05-21T19:45:14.856Z,20.10
2018-05-21T19:47:47.437Z,20.10
2018-05-21T19:50:20.160Z,20.00
2018-05-21T19:52:52.742Z,20.00
2018-05-21T19:55:25.832Z,19.90
2018-05-21T19:57:58.739Z,19.90
2018-05-21T20:00:32.073Z,19.80
2018-05-21T20:03:04.944Z,19.80
2018-05-21T20:05:37.654Z,19.80
2018-05-21T20:08:10.533Z,19.70
2018-05-21T20:10:44.128Z,19.50
2018-05-21T20:13:16.972Z,19.50
2018-05-21T20:15:49.468Z,19.40
2018-05-21T20:18:32.319Z,19.20
2018-05-21T20:21:04.950Z,19.20
2018-05-21T20:23:37.726Z,19.20
2018-05-21T20:26:10.354Z,19.10
2018-05-21T20:28:43.992Z,19.00
2018-05-21T20:31:16.471Z,18.90
2018-05-21T20:33:49.151Z,18.80
2018-05-21T20:36:22.252Z,18.80
2018-05-21T20:38:54.939Z,18.70
2018-05-21T20:41:27.603Z,18.60
2018-05-21T20:44:00.510Z,18.40
2018-05-21T20:46:32.960Z,18.20
2018-05-21T20:49:05.635Z,18.00
2018-05-21T20:51:38.304Z,17.80
2018-05-21T20:54:11.117Z,17.70
2018-05-21T20:56:43.607Z,17.60
2018-05-21T20:59:16.115Z,17.60
2018-05-21T21:01:48.594Z,17.50
2018-05-21T21:04:21.257Z,17.40
2018-05-21T21:06:53.815Z,17.30
2018-05-21T21:09:26.698Z,17.30
2018-05-21T21:11:59.394Z,17.20
2018-05-21T21:14:32.121Z,17.00
2018-05-21T21:17:05.560Z,16.90
2018-05-21T21:19:38.321Z,16.90
2018-05-21T21:22:10.961Z,16.80
2018-05-21T21:24:43.904Z,16.70
2018-05-21T21:27:17.301Z,16.60
2018-05-21T21:29:50.019Z,16.60
2018-05-21T21:32:22.668Z,16.60
2018-05-21T21:34:55.261Z,16.60
2018-05-21T21:37:27.960Z,16.50
2018-05-21T21:40:00.809Z,16.50
2018-05-21T21:42:33.549Z,16.40
2018-05-21T21:45:06.926Z,16.40
2018-05-21T21:50:18.938Z,16.40
2018-05-21T21:52:51.826Z,16.30
2018-05-21T21:55:24.285Z,16.30
2018-05-21T21:57:56.752Z,16.30
2018-05-21T22:00:29.539Z,16.30
2018-05-21T22:03:02.085Z,16.30
2018-05-21T22:05:35.454Z,16.30
2018-05-21T22:08:07.983Z,16.30
2018-05-21T22:10:40.544Z,16.30
2018-05-21T22:13:13.141Z,16.30
2018-05-21T22:15:45.912Z,16.20
2018-05-21T22:18:18.472Z,16.10
2018-05-21T22:20:51.183Z,16.00
2018-05-21T22:23:23.890Z,16.00
2018-05-21T22:25:56.639Z,15.90
2018-05-21T22:28:29.671Z,15.80
2018-05-21T22:31:02.412Z,15.80
2018-05-21T22:33:34.995Z,15.80
2018-05-21T22:36:07.678Z,15.80
2018-05-21T22:38:40.211Z,15.80
2018-05-21T22:41:12.905Z,15.60
2018-05-21T22:43:45.486Z,15.60
2018-05-21T22:46:18.025Z,15.60
2018-05-21T22:48:50.650Z,15.60
2018-05-21T22:51:23.506Z,15.50
2018-05-21T22:53:56.006Z,15.50
2018-05-21T22:56:28.614Z,15.40
2018-05-21T22:59:01.130Z,15.50
2018-05-21T23:01:33.617Z,15.40
2018-05-21T23:04:06.299Z,15.40
2018-05-21T23:06:39.008Z,15.30
2018-05-21T23:09:11.396Z,15.30
2018-05-21T23:11:44.036Z,15.30
2018-05-21T23:14:16.829Z,15.30
2018-05-21T23:16:50.105Z,15.30
2018-05-21T23:19:22.813Z,15.30
2018-05-21T23:21:55.383Z,15.30
2018-05-21T23:24:28.029Z,15.30
2018-05-21T23:27:00.394Z,15.20
2018-05-21T23:29:33.294Z,15.10
2018-05-21T23:32:05.706Z,15.20
2018-05-21T23:34:38.215Z,15.10
2018-05-21T23:37:10.790Z,15.10
2018-05-21T23:39:43.313Z,15.10
2018-05-21T23:42:15.974Z,15.00
2018-05-21T23:44:49.150Z,15.00
2018-05-21T23:47:22.349Z,14.90
2018-05-21T23:49:54.763Z,14.90
2018-05-21T23:52:27.406Z,14.80
2018-05-21T23:54:59.915Z,14.80
2018-05-21T23:57:32.323Z,14.70
